Washington Court House, Ohio
Current Conditions -  °F | °C
As of 11:08 AM on Tuesday 21 Oct 2014 (Local Time) from KILN Reporting Station
Overcast Overcast  
Wind Chill: 50°   Ceiling: 1900
Heat Index: 50°   Visibility: 10mi
Dew Point: 42°   Wind: 14mph
Humidity: 74%   Direction: 330°NNW
Pressure: 30.01"   Gusts: 21mph
Location:  39.54°N, 83.44°W
Report Text: KILN 211508Z AUTO 33012G18KT 10SM BKN019 BKN027 OVC055 10/06 A3001 RMK AO2 T01000056
Loading
Personal Weather Stations






























Interactive Weather Map
Tropical Storm Tracking
New forecast layout! Learn more

10-Day Weather Forecast

Advertisements
Track Severe Weather on mobile